Tortosa, Spain
Current Conditions -  °F | °C
As of 8:30 PM on Tuesday 21 Oct 2014 (Local Time) from LERS Reporting Station
Clear Clear  
Wind Chill: 84°   Ceiling: Unl
Heat Index: 84°   Visibility: 6mi
Dew Point: 46°   Wind: 26mph
Humidity: 27%   Direction: 290°WNW
Pressure: 30.06"   Gusts: 38mph
Location:  40.81°N, 0.52°E
Report Text: LERS 211830Z 29023G33KT 250V320 CAVOK 29/08 Q1018
Loading
Personal Weather Stations






























Interactive Weather Map
Tropical Storm Tracking
New forecast layout! Learn more

10-Day Weather Forecast

Advertisements
Track Severe Weather on mobile